Terminal Aerodrome Forecast
Issued by NWS

Home | Current Version | Previous Version | Text Only | Print | Product List | Glossary On
Versions: 1 2 3 4 5 6 7 8 9 10 11 12 13 14 15 16 17 18 19 20
000
FTUS41 KPBZ 021100
TAFZZV
TAF
KZZV 021129Z 0212/0312 22008KT 4SM -SHRA BKN035
      TEMPO 0213/0217 2SM -TSRA BKN025CB
     FM022000 24008KT P6SM BKN050
     FM030900 26003KT 4SM BR SCT250=

USA.gov is the U.S. government's official web portal to all federal, state and local government web resources and services.